Aérodrome :
LOGIN :

S'inscrire | Disclaimer

   EN    FR    IT 

 










Légende :    VFR   VFR Marginal   IFR   IFR Intensif   IFR Très Intensif
Visi : 
Plafond : 
>= 8 km
>= 3000ft
5 à 8 km
1000 à 3000 ft
1500m à 5 km
500 à 1000 ft
800 à 1500m
200 à 500 ft
< 800m
< 200 ft
Symboles :   Orages  Brouillard  Fortes neiges  Fortes précipitations  Vent > 20 kt
SIGMETs :   Divers  Orages  Givrage  Turbulence  Onde Orograph.  Cendres Volcan.







- Altitude de l'aérodrome : 268 ft
- Code IATA : BFS
- Voir les cartes d'approche


EGAA - Belfast Aldergrove

DERNIER METAR :
  • 251950Z 35013KT 9999 FEW040 05/M01 Q1021

METARs EXPIRÉS :
  • 251920Z 35013KT 9999 FEW040 06/M01 Q1021
  • 251850Z 35015KT 9999 FEW039 SCT047 07/M01 Q1021
  • 251820Z 36017KT 9999 FEW038 07/M01 Q1021
  • 251750Z 36018KT 9999 SCT039 07/M01 Q1020
  • 251720Z 34017KT 9999 SCT039 08/M01 Q1020

TAF TAF EGAA
Valide du 25 à 18h jusqu'au 26 à 18h UTC


251703Z 2518/2618 35018G30KT 9999 FEW030
BECMG 2518/2521 35011KT
Pas de NOTAMs connus pour ce terrain.



MET'MAP, la Météo Aéronautique d'un coup d'oeil ! - Copyright ORBIFLY Décembre 2007 - Disclaimer

ORBIFLY MET'MAP TEAM :

Programmation & Développement : Alexandra Zaïnal
Conception & Développement : Baudouin d'Aumeries
Co-Programmation & Développement : Marc-Olivier Méhu
Soutien technique & logistique : Manuel Goepfert

Contact : metmap@orbifly.com




SOURCES & CREDITS :

   NOAA